sensor_id;sensor_type;location;lat;lon;timestamp;P1;durP1;ratioP1;P2;durP2;ratioP2
32108;SDS011;18624;50.042;8.436;2022-12-05T00:03:41;17.67;;;11.75;;
32108;SDS011;18624;50.042;8.436;2022-12-05T00:06:07;21.08;;;12.48;;
32108;SDS011;18624;50.042;8.436;2022-12-05T00:08:34;16.08;;;11.77;;
32108;SDS011;18624;50.042;8.436;2022-12-05T00:11:00;17.05;;;12.52;;
32108;SDS011;18624;50.042;8.436;2022-12-05T00:13:27;16.45;;;12.25;;
32108;SDS011;18624;50.042;8.436;2022-12-05T00:15:53;16.58;;;11.77;;
32108;SDS011;18624;50.042;8.436;2022-12-05T00:18:20;17.15;;;11.43;;
32108;SDS011;18624;50.042;8.436;2022-12-05T00:20:47;15.75;;;11.80;;
32108;SDS011;18624;50.042;8.436;2022-12-05T00:23:14;16.65;;;12.27;;
32108;SDS011;18624;50.042;8.436;2022-12-05T00:25:40;19.27;;;12.40;;
32108;SDS011;18624;50.042;8.436;2022-12-05T00:28:07;17.02;;;11.98;;
32108;SDS011;18624;50.042;8.436;2022-12-05T00:30:33;16.13;;;11.10;;
32108;SDS011;18624;50.042;8.436;2022-12-05T00:33:00;14.50;;;11.13;;
32108;SDS011;18624;50.042;8.436;2022-12-05T00:35:26;16.38;;;11.77;;
32108;SDS011;18624;50.042;8.436;2022-12-05T00:37:53;15.77;;;11.57;;
32108;SDS011;18624;50.042;8.436;2022-12-05T00:40:19;17.63;;;11.50;;
32108;SDS011;18624;50.042;8.436;2022-12-05T00:42:46;21.55;;;13.07;;
32108;SDS011;18624;50.042;8.436;2022-12-05T00:45:17;16.23;;;11.38;;
32108;SDS011;18624;50.042;8.436;2022-12-05T00:47:44;16.98;;;13.23;;
32108;SDS011;18624;50.042;8.436;2022-12-05T00:50:10;17.05;;;12.25;;
32108;SDS011;18624;50.042;8.436;2022-12-05T00:52:37;19.58;;;12.00;;
32108;SDS011;18624;50.042;8.436;2022-12-05T00:55:03;16.33;;;11.60;;
32108;SDS011;18624;50.042;8.436;2022-12-05T00:57:30;15.82;;;11.10;;
32108;SDS011;18624;50.042;8.436;2022-12-05T00:59:57;15.23;;;11.43;;
32108;SDS011;18624;50.042;8.436;2022-12-05T01:02:24;16.80;;;11.48;;
32108;SDS011;18624;50.042;8.436;2022-12-05T01:04:50;17.75;;;12.15;;
32108;SDS011;18624;50.042;8.436;2022-12-05T01:07:17;17.10;;;12.07;;
32108;SDS011;18624;50.042;8.436;2022-12-05T01:09:43;17.58;;;11.93;;
32108;SDS011;18624;50.042;8.436;2022-12-05T01:12:10;16.05;;;11.48;;
32108;SDS011;18624;50.042;8.436;2022-12-05T01:14:36;17.88;;;11.88;;
32108;SDS011;18624;50.042;8.436;2022-12-05T01:17:02;19.05;;;12.10;;
32108;SDS011;18624;50.042;8.436;2022-12-05T01:19:30;16.30;;;11.32;;
32108;SDS011;18624;50.042;8.436;2022-12-05T01:21:57;18.95;;;11.85;;
32108;SDS011;18624;50.042;8.436;2022-12-05T01:24:25;16.23;;;10.85;;
32108;SDS011;18624;50.042;8.436;2022-12-05T01:26:52;17.50;;;12.55;;
32108;SDS011;18624;50.042;8.436;2022-12-05T01:29:20;14.88;;;10.27;;
32108;SDS011;18624;50.042;8.436;2022-12-05T01:31:48;17.92;;;11.38;;
32108;SDS011;18624;50.042;8.436;2022-12-05T01:34:15;15.40;;;11.05;;
32108;SDS011;18624;50.042;8.436;2022-12-05T01:36:43;17.48;;;11.75;;
32108;SDS011;18624;50.042;8.436;2022-12-05T01:39:10;16.85;;;11.07;;
32108;SDS011;18624;50.042;8.436;2022-12-05T01:41:40;19.10;;;11.48;;
32108;SDS011;18624;50.042;8.436;2022-12-05T01:46:39;15.40;;;12.25;;
32108;SDS011;18624;50.042;8.436;2022-12-05T01:49:14;16.73;;;12.35;;
32108;SDS011;18624;50.042;8.436;2022-12-05T01:51:50;17.98;;;12.65;;
32108;SDS011;18624;50.042;8.436;2022-12-05T01:54:19;15.13;;;11.00;;
32108;SDS011;18624;50.042;8.436;2022-12-05T01:56:49;16.50;;;10.82;;
32108;SDS011;18624;50.042;8.436;2022-12-05T01:59:18;16.75;;;11.82;;
32108;SDS011;18624;50.042;8.436;2022-12-05T02:01:46;19.13;;;13.60;;
32108;SDS011;18624;50.042;8.436;2022-12-05T02:04:13;15.55;;;11.68;;
32108;SDS011;18624;50.042;8.436;2022-12-05T02:06:40;17.42;;;11.30;;
32108;SDS011;18624;50.042;8.436;2022-12-05T02:09:07;15.10;;;11.35;;
32108;SDS011;18624;50.042;8.436;2022-12-05T02:11:34;17.67;;;12.88;;
32108;SDS011;18624;50.042;8.436;2022-12-05T02:14:21;13.93;;;10.18;;
32108;SDS011;18624;50.042;8.436;2022-12-05T02:28:32;16.35;;;11.13;;
32108;SDS011;18624;50.042;8.436;2022-12-05T02:31:15;15.82;;;10.77;;
32108;SDS011;18624;50.042;8.436;2022-12-05T02:33:55;14.88;;;9.82;;
32108;SDS011;18624;50.042;8.436;2022-12-05T02:36:39;13.52;;;9.15;;
32108;SDS011;18624;50.042;8.436;2022-12-05T02:39:25;11.90;;;9.05;;
32108;SDS011;18624;50.042;8.436;2022-12-05T02:42:00;17.33;;;11.27;;
32108;SDS011;18624;50.042;8.436;2022-12-05T02:44:32;14.60;;;10.38;;
32108;SDS011;18624;50.042;8.436;2022-12-05T02:47:06;15.85;;;10.40;;
32108;SDS011;18624;50.042;8.436;2022-12-05T02:49:35;15.40;;;9.85;;
32108;SDS011;18624;50.042;8.436;2022-12-05T02:52:03;15.00;;;10.50;;
32108;SDS011;18624;50.042;8.436;2022-12-05T02:54:34;14.27;;;9.93;;
32108;SDS011;18624;50.042;8.436;2022-12-05T02:57:04;15.90;;;10.00;;
32108;SDS011;18624;50.042;8.436;2022-12-05T02:59:33;14.20;;;9.02;;
32108;SDS011;18624;50.042;8.436;2022-12-05T03:01:59;16.58;;;10.68;;
32108;SDS011;18624;50.042;8.436;2022-12-05T03:04:26;16.83;;;10.60;;
32108;SDS011;18624;50.042;8.436;2022-12-05T03:06:58;15.07;;;10.90;;
32108;SDS011;18624;50.042;8.436;2022-12-05T03:09:41;16.02;;;11.07;;
32108;SDS011;18624;50.042;8.436;2022-12-05T03:12:22;12.40;;;9.95;;
32108;SDS011;18624;50.042;8.436;2022-12-05T03:14:54;12.63;;;9.75;;
32108;SDS011;18624;50.042;8.436;2022-12-05T03:17:27;13.65;;;9.70;;
32108;SDS011;18624;50.042;8.436;2022-12-05T03:20:04;14.57;;;10.03;;
32108;SDS011;18624;50.042;8.436;2022-12-05T03:22:38;17.42;;;10.93;;
32108;SDS011;18624;50.042;8.436;2022-12-05T03:25:09;10.20;;;7.38;;
32108;SDS011;18624;50.042;8.436;2022-12-05T03:28:00;16.27;;;10.57;;
32108;SDS011;18624;50.042;8.436;2022-12-05T03:30:52;13.23;;;9.57;;
32108;SDS011;18624;50.042;8.436;2022-12-05T03:33:25;14.20;;;9.23;;
32108;SDS011;18624;50.042;8.436;2022-12-05T03:36:18;12.77;;;9.15;;
32108;SDS011;18624;50.042;8.436;2022-12-05T03:39:31;13.90;;;9.15;;
32108;SDS011;18624;50.042;8.436;2022-12-05T03:44:49;13.85;;;9.95;;
32108;SDS011;18624;50.042;8.436;2022-12-05T03:47:42;14.93;;;9.50;;
32108;SDS011;18624;50.042;8.436;2022-12-05T03:50:29;13.68;;;9.85;;
32108;SDS011;18624;50.042;8.436;2022-12-05T03:52:57;14.20;;;10.95;;
32108;SDS011;18624;50.042;8.436;2022-12-05T03:55:45;13.60;;;9.65;;
32108;SDS011;18624;50.042;8.436;2022-12-05T04:00:56;15.85;;;12.00;;
32108;SDS011;18624;50.042;8.436;2022-12-05T04:03:31;17.30;;;12.93;;
32108;SDS011;18624;50.042;8.436;2022-12-05T04:06:07;15.63;;;10.80;;
32108;SDS011;18624;50.042;8.436;2022-12-05T04:11:44;15.65;;;10.63;;
32108;SDS011;18624;50.042;8.436;2022-12-05T04:20:01;19.55;;;11.30;;
32108;SDS011;18624;50.042;8.436;2022-12-05T04:22:50;14.38;;;10.70;;
32108;SDS011;18624;50.042;8.436;2022-12-05T04:25:17;15.82;;;11.43;;
32108;SDS011;18624;50.042;8.436;2022-12-05T04:30:52;18.42;;;12.18;;
32108;SDS011;18624;50.042;8.436;2022-12-05T04:33:34;17.67;;;11.48;;
32108;SDS011;18624;50.042;8.436;2022-12-05T04:36:09;14.98;;;10.30;;
32108;SDS011;18624;50.042;8.436;2022-12-05T04:38:42;17.30;;;11.68;;
32108;SDS011;18624;50.042;8.436;2022-12-05T04:41:18;15.30;;;10.90;;
32108;SDS011;18624;50.042;8.436;2022-12-05T04:43:48;21.98;;;12.85;;
32108;SDS011;18624;50.042;8.436;2022-12-05T04:46:17;19.73;;;13.05;;
32108;SDS011;18624;50.042;8.436;2022-12-05T04:48:47;17.45;;;11.15;;
32108;SDS011;18624;50.042;8.436;2022-12-05T04:51:20;20.38;;;13.73;;
32108;SDS011;18624;50.042;8.436;2022-12-05T04:56:23;16.70;;;11.18;;
32108;SDS011;18624;50.042;8.436;2022-12-05T04:58:53;18.40;;;11.55;;
32108;SDS011;18624;50.042;8.436;2022-12-05T05:04:06;15.95;;;11.65;;
32108;SDS011;18624;50.042;8.436;2022-12-05T05:06:37;18.90;;;12.20;;
32108;SDS011;18624;50.042;8.436;2022-12-05T05:09:05;23.70;;;14.35;;
32108;SDS011;18624;50.042;8.436;2022-12-05T05:11:33;20.85;;;12.63;;
32108;SDS011;18624;50.042;8.436;2022-12-05T05:14:00;21.13;;;13.00;;
32108;SDS011;18624;50.042;8.436;2022-12-05T05:16:29;22.83;;;14.70;;
32108;SDS011;18624;50.042;8.436;2022-12-05T05:21:37;21.60;;;13.68;;
32108;SDS011;18624;50.042;8.436;2022-12-05T05:24:05;19.15;;;13.50;;
32108;SDS011;18624;50.042;8.436;2022-12-05T05:26:36;23.50;;;15.10;;
32108;SDS011;18624;50.042;8.436;2022-12-05T05:29:07;27.42;;;16.50;;
32108;SDS011;18624;50.042;8.436;2022-12-05T05:31:35;30.30;;;16.45;;
32108;SDS011;18624;50.042;8.436;2022-12-05T05:34:02;28.40;;;15.52;;
32108;SDS011;18624;50.042;8.436;2022-12-05T05:36:35;29.35;;;17.85;;
32108;SDS011;18624;50.042;8.436;2022-12-05T05:39:03;28.10;;;17.60;;
32108;SDS011;18624;50.042;8.436;2022-12-05T05:41:33;28.20;;;17.30;;
32108;SDS011;18624;50.042;8.436;2022-12-05T05:44:01;30.15;;;17.20;;
32108;SDS011;18624;50.042;8.436;2022-12-05T05:46:29;30.60;;;17.33;;
32108;SDS011;18624;50.042;8.436;2022-12-05T05:48:58;29.67;;;17.10;;
32108;SDS011;18624;50.042;8.436;2022-12-05T05:51:24;31.73;;;16.27;;
32108;SDS011;18624;50.042;8.436;2022-12-05T05:53:53;29.92;;;17.08;;
32108;SDS011;18624;50.042;8.436;2022-12-05T05:56:20;30.05;;;17.83;;
32108;SDS011;18624;50.042;8.436;2022-12-05T05:58:47;31.05;;;16.63;;
32108;SDS011;18624;50.042;8.436;2022-12-05T06:01:20;33.60;;;16.98;;
32108;SDS011;18624;50.042;8.436;2022-12-05T06:03:46;35.40;;;18.70;;
32108;SDS011;18624;50.042;8.436;2022-12-05T06:06:14;33.60;;;19.60;;
32108;SDS011;18624;50.042;8.436;2022-12-05T06:08:41;33.15;;;18.35;;
32108;SDS011;18624;50.042;8.436;2022-12-05T06:11:11;28.52;;;16.45;;
32108;SDS011;18624;50.042;8.436;2022-12-05T06:13:51;29.50;;;16.80;;
32108;SDS011;18624;50.042;8.436;2022-12-05T06:16:18;29.17;;;17.30;;
32108;SDS011;18624;50.042;8.436;2022-12-05T06:18:46;31.65;;;17.13;;
32108;SDS011;18624;50.042;8.436;2022-12-05T06:21:14;37.13;;;18.45;;
32108;SDS011;18624;50.042;8.436;2022-12-05T06:23:41;33.17;;;17.80;;
32108;SDS011;18624;50.042;8.436;2022-12-05T06:26:12;26.73;;;15.63;;
32108;SDS011;18624;50.042;8.436;2022-12-05T06:31:08;24.77;;;15.10;;
32108;SDS011;18624;50.042;8.436;2022-12-05T06:33:37;29.30;;;16.33;;
32108;SDS011;18624;50.042;8.436;2022-12-05T06:36:04;25.50;;;15.75;;
32108;SDS011;18624;50.042;8.436;2022-12-05T06:38:36;28.70;;;18.00;;
32108;SDS011;18624;50.042;8.436;2022-12-05T06:41:08;31.42;;;16.90;;
32108;SDS011;18624;50.042;8.436;2022-12-05T06:43:36;27.50;;;17.50;;
32108;SDS011;18624;50.042;8.436;2022-12-05T06:46:03;28.08;;;16.75;;
32108;SDS011;18624;50.042;8.436;2022-12-05T06:48:31;26.02;;;17.05;;
32108;SDS011;18624;50.042;8.436;2022-12-05T06:50:58;25.95;;;16.73;;
32108;SDS011;18624;50.042;8.436;2022-12-05T06:53:24;25.92;;;15.07;;
32108;SDS011;18624;50.042;8.436;2022-12-05T06:55:58;26.63;;;13.80;;
32108;SDS011;18624;50.042;8.436;2022-12-05T06:58:27;25.45;;;15.00;;
32108;SDS011;18624;50.042;8.436;2022-12-05T07:00:54;26.33;;;15.32;;
32108;SDS011;18624;50.042;8.436;2022-12-05T07:03:39;27.17;;;15.55;;
32108;SDS011;18624;50.042;8.436;2022-12-05T07:06:06;24.25;;;13.80;;
32108;SDS011;18624;50.042;8.436;2022-12-05T07:08:33;29.13;;;17.40;;
32108;SDS011;18624;50.042;8.436;2022-12-05T07:11:00;31.45;;;17.30;;
32108;SDS011;18624;50.042;8.436;2022-12-05T07:13:28;27.17;;;15.50;;
32108;SDS011;18624;50.042;8.436;2022-12-05T07:15:54;23.73;;;15.18;;
32108;SDS011;18624;50.042;8.436;2022-12-05T07:18:21;29.48;;;15.88;;
32108;SDS011;18624;50.042;8.436;2022-12-05T07:20:55;28.73;;;16.50;;
32108;SDS011;18624;50.042;8.436;2022-12-05T07:23:37;28.63;;;16.77;;
32108;SDS011;18624;50.042;8.436;2022-12-05T07:26:05;22.65;;;14.32;;
32108;SDS011;18624;50.042;8.436;2022-12-05T07:28:33;26.02;;;14.15;;
32108;SDS011;18624;50.042;8.436;2022-12-05T07:33:27;24.60;;;14.65;;
32108;SDS011;18624;50.042;8.436;2022-12-05T07:36:01;22.48;;;14.73;;
32108;SDS011;18624;50.042;8.436;2022-12-05T07:38:29;25.52;;;15.07;;
32108;SDS011;18624;50.042;8.436;2022-12-05T07:40:57;23.50;;;14.77;;
32108;SDS011;18624;50.042;8.436;2022-12-05T07:43:23;27.45;;;15.73;;
32108;SDS011;18624;50.042;8.436;2022-12-05T07:45:50;25.08;;;13.80;;
32108;SDS011;18624;50.042;8.436;2022-12-05T07:48:18;26.05;;;15.73;;
32108;SDS011;18624;50.042;8.436;2022-12-05T07:50:45;28.35;;;17.63;;
32108;SDS011;18624;50.042;8.436;2022-12-05T07:53:11;24.10;;;16.23;;
32108;SDS011;18624;50.042;8.436;2022-12-05T07:55:38;22.17;;;13.00;;
32108;SDS011;18624;50.042;8.436;2022-12-05T07:58:05;24.80;;;15.75;;
32108;SDS011;18624;50.042;8.436;2022-12-05T08:00:31;21.92;;;14.35;;
32108;SDS011;18624;50.042;8.436;2022-12-05T08:02:58;23.17;;;13.98;;
32108;SDS011;18624;50.042;8.436;2022-12-05T08:05:24;24.08;;;14.60;;
32108;SDS011;18624;50.042;8.436;2022-12-05T08:07:50;28.58;;;17.55;;
32108;SDS011;18624;50.042;8.436;2022-12-05T08:10:17;28.33;;;16.42;;
32108;SDS011;18624;50.042;8.436;2022-12-05T08:12:43;26.25;;;15.70;;
32108;SDS011;18624;50.042;8.436;2022-12-05T08:15:10;23.77;;;15.18;;
32108;SDS011;18624;50.042;8.436;2022-12-05T08:17:36;26.77;;;15.10;;
32108;SDS011;18624;50.042;8.436;2022-12-05T08:20:03;26.25;;;15.52;;
32108;SDS011;18624;50.042;8.436;2022-12-05T08:22:30;30.60;;;18.63;;
32108;SDS011;18624;50.042;8.436;2022-12-05T08:24:56;23.23;;;15.50;;
32108;SDS011;18624;50.042;8.436;2022-12-05T08:27:23;27.88;;;17.98;;
32108;SDS011;18624;50.042;8.436;2022-12-05T08:29:49;34.35;;;20.75;;
32108;SDS011;18624;50.042;8.436;2022-12-05T08:32:16;30.33;;;18.23;;
32108;SDS011;18624;50.042;8.436;2022-12-05T08:34:42;27.50;;;15.55;;
32108;SDS011;18624;50.042;8.436;2022-12-05T08:37:09;26.42;;;15.02;;
32108;SDS011;18624;50.042;8.436;2022-12-05T08:39:35;28.63;;;16.65;;
32108;SDS011;18624;50.042;8.436;2022-12-05T08:42:04;26.90;;;16.30;;
32108;SDS011;18624;50.042;8.436;2022-12-05T08:44:30;25.48;;;16.60;;
32108;SDS011;18624;50.042;8.436;2022-12-05T08:46:57;24.05;;;15.63;;
32108;SDS011;18624;50.042;8.436;2022-12-05T08:49:23;27.15;;;16.15;;
32108;SDS011;18624;50.042;8.436;2022-12-05T08:51:50;24.65;;;15.82;;
32108;SDS011;18624;50.042;8.436;2022-12-05T08:54:16;24.88;;;14.60;;
32108;SDS011;18624;50.042;8.436;2022-12-05T08:56:43;27.13;;;17.13;;
32108;SDS011;18624;50.042;8.436;2022-12-05T08:59:09;26.17;;;16.92;;
32108;SDS011;18624;50.042;8.436;2022-12-05T09:01:36;25.77;;;16.15;;
32108;SDS011;18624;50.042;8.436;2022-12-05T09:04:05;33.72;;;19.88;;
32108;SDS011;18624;50.042;8.436;2022-12-05T09:06:32;32.45;;;18.90;;
32108;SDS011;18624;50.042;8.436;2022-12-05T09:09:00;28.85;;;18.50;;
32108;SDS011;18624;50.042;8.436;2022-12-05T09:11:31;33.65;;;20.58;;
32108;SDS011;18624;50.042;8.436;2022-12-05T09:14:00;31.08;;;18.90;;
32108;SDS011;18624;50.042;8.436;2022-12-05T09:16:28;26.65;;;17.02;;
32108;SDS011;18624;50.042;8.436;2022-12-05T09:19:04;29.77;;;16.15;;
32108;SDS011;18624;50.042;8.436;2022-12-05T09:21:35;25.73;;;17.10;;
32108;SDS011;18624;50.042;8.436;2022-12-05T09:24:02;31.90;;;17.75;;
32108;SDS011;18624;50.042;8.436;2022-12-05T09:26:28;30.20;;;16.75;;
32108;SDS011;18624;50.042;8.436;2022-12-05T09:28:55;27.92;;;16.77;;
32108;SDS011;18624;50.042;8.436;2022-12-05T09:31:24;32.83;;;18.45;;
32108;SDS011;18624;50.042;8.436;2022-12-05T09:33:52;33.80;;;19.70;;
32108;SDS011;18624;50.042;8.436;2022-12-05T09:36:20;27.67;;;17.15;;
32108;SDS011;18624;50.042;8.436;2022-12-05T09:38:49;27.70;;;17.25;;
32108;SDS011;18624;50.042;8.436;2022-12-05T09:49:57;31.30;;;17.35;;
32108;SDS011;18624;50.042;8.436;2022-12-05T09:52:52;22.50;;;15.80;;
32108;SDS011;18624;50.042;8.436;2022-12-05T09:55:48;28.70;;;17.98;;
32108;SDS011;18624;50.042;8.436;2022-12-05T09:58:20;30.20;;;19.58;;
32108;SDS011;18624;50.042;8.436;2022-12-05T10:06:57;24.02;;;14.77;;
32108;SDS011;18624;50.042;8.436;2022-12-05T10:15:29;24.63;;;15.18;;
32108;SDS011;18624;50.042;8.436;2022-12-05T10:18:01;26.15;;;17.35;;
32108;SDS011;18624;50.042;8.436;2022-12-05T10:20:41;26.23;;;16.38;;
32108;SDS011;18624;50.042;8.436;2022-12-05T10:23:22;23.77;;;16.33;;
32108;SDS011;18624;50.042;8.436;2022-12-05T10:26:26;24.48;;;15.32;;
32108;SDS011;18624;50.042;8.436;2022-12-05T10:31:43;29.98;;;17.80;;
32108;SDS011;18624;50.042;8.436;2022-12-05T10:34:14;27.15;;;16.92;;
32108;SDS011;18624;50.042;8.436;2022-12-05T10:36:52;23.80;;;15.07;;
32108;SDS011;18624;50.042;8.436;2022-12-05T10:39:22;27.00;;;15.80;;
32108;SDS011;18624;50.042;8.436;2022-12-05T10:41:49;26.42;;;16.27;;
32108;SDS011;18624;50.042;8.436;2022-12-05T10:44:15;28.40;;;18.58;;
32108;SDS011;18624;50.042;8.436;2022-12-05T10:46:42;24.92;;;15.40;;
32108;SDS011;18624;50.042;8.436;2022-12-05T10:49:10;25.02;;;15.35;;
32108;SDS011;18624;50.042;8.436;2022-12-05T10:51:37;26.35;;;16.50;;
32108;SDS011;18624;50.042;8.436;2022-12-05T10:54:12;26.83;;;17.13;;
32108;SDS011;18624;50.042;8.436;2022-12-05T10:59:11;26.80;;;16.38;;
32108;SDS011;18624;50.042;8.436;2022-12-05T11:04:22;25.83;;;16.10;;
32108;SDS011;18624;50.042;8.436;2022-12-05T11:06:59;21.70;;;14.90;;
32108;SDS011;18624;50.042;8.436;2022-12-05T11:09:28;26.60;;;15.88;;
32108;SDS011;18624;50.042;8.436;2022-12-05T11:12:16;29.23;;;17.10;;
32108;SDS011;18624;50.042;8.436;2022-12-05T11:14:56;22.75;;;15.00;;
32108;SDS011;18624;50.042;8.436;2022-12-05T11:17:29;23.85;;;15.07;;
32108;SDS011;18624;50.042;8.436;2022-12-05T11:20:01;22.75;;;13.40;;
32108;SDS011;18624;50.042;8.436;2022-12-05T11:22:51;23.13;;;14.73;;
32108;SDS011;18624;50.042;8.436;2022-12-05T11:25:41;22.95;;;13.35;;
32108;SDS011;18624;50.042;8.436;2022-12-05T11:28:29;19.10;;;13.63;;
32108;SDS011;18624;50.042;8.436;2022-12-05T11:33:41;24.15;;;13.90;;
32108;SDS011;18624;50.042;8.436;2022-12-05T11:36:12;20.38;;;12.88;;
32108;SDS011;18624;50.042;8.436;2022-12-05T11:38:47;21.10;;;13.32;;
32108;SDS011;18624;50.042;8.436;2022-12-05T11:49:40;20.05;;;12.55;;
32108;SDS011;18624;50.042;8.436;2022-12-05T12:00:42;20.90;;;13.48;;
32108;SDS011;18624;50.042;8.436;2022-12-05T12:08:52;21.98;;;13.77;;
32108;SDS011;18624;50.042;8.436;2022-12-05T12:14:38;18.52;;;12.05;;
32108;SDS011;18624;50.042;8.436;2022-12-05T12:17:35;17.75;;;11.00;;
32108;SDS011;18624;50.042;8.436;2022-12-05T12:20:21;13.02;;;9.07;;
32108;SDS011;18624;50.042;8.436;2022-12-05T12:47:00;20.92;;;11.88;;
32108;SDS011;18624;50.042;8.436;2022-12-05T12:49:38;22.20;;;13.30;;
32108;SDS011;18624;50.042;8.436;2022-12-05T12:52:21;18.92;;;12.02;;
32108;SDS011;18624;50.042;8.436;2022-12-05T12:54:53;18.45;;;11.57;;
32108;SDS011;18624;50.042;8.436;2022-12-05T13:00:22;17.25;;;11.50;;
32108;SDS011;18624;50.042;8.436;2022-12-05T13:03:03;23.13;;;12.23;;
32108;SDS011;18624;50.042;8.436;2022-12-05T13:05:40;24.75;;;12.80;;
32108;SDS011;18624;50.042;8.436;2022-12-05T13:08:34;18.83;;;11.98;;
32108;SDS011;18624;50.042;8.436;2022-12-05T13:11:07;18.85;;;12.63;;
32108;SDS011;18624;50.042;8.436;2022-12-05T13:13:47;28.73;;;14.68;;
32108;SDS011;18624;50.042;8.436;2022-12-05T13:16:24;22.20;;;14.20;;
32108;SDS011;18624;50.042;8.436;2022-12-05T13:18:54;25.35;;;14.07;;
32108;SDS011;18624;50.042;8.436;2022-12-05T13:21:22;21.65;;;13.32;;
32108;SDS011;18624;50.042;8.436;2022-12-05T13:23:51;23.02;;;14.98;;
32108;SDS011;18624;50.042;8.436;2022-12-05T13:26:21;28.52;;;16.60;;
32108;SDS011;18624;50.042;8.436;2022-12-05T13:28:51;27.45;;;15.60;;
32108;SDS011;18624;50.042;8.436;2022-12-05T13:31:39;25.40;;;15.80;;
32108;SDS011;18624;50.042;8.436;2022-12-05T13:36:53;27.25;;;16.15;;
32108;SDS011;18624;50.042;8.436;2022-12-05T13:39:40;28.02;;;17.00;;
32108;SDS011;18624;50.042;8.436;2022-12-05T13:42:34;24.80;;;14.98;;
32108;SDS011;18624;50.042;8.436;2022-12-05T13:47:30;27.30;;;15.32;;
32108;SDS011;18624;50.042;8.436;2022-12-05T13:50:06;29.83;;;15.90;;
32108;SDS011;18624;50.042;8.436;2022-12-05T13:52:44;26.33;;;16.42;;
32108;SDS011;18624;50.042;8.436;2022-12-05T13:55:25;27.98;;;15.73;;
32108;SDS011;18624;50.042;8.436;2022-12-05T14:00:45;27.17;;;15.13;;
32108;SDS011;18624;50.042;8.436;2022-12-05T14:06:05;26.38;;;16.10;;
32108;SDS011;18624;50.042;8.436;2022-12-05T14:27:09;25.20;;;16.85;;
32108;SDS011;18624;50.042;8.436;2022-12-05T14:30:04;31.40;;;16.05;;
32108;SDS011;18624;50.042;8.436;2022-12-05T14:32:51;25.13;;;16.25;;
32108;SDS011;18624;50.042;8.436;2022-12-05T14:35:27;25.33;;;14.05;;
32108;SDS011;18624;50.042;8.436;2022-12-05T14:40:34;23.85;;;14.70;;
32108;SDS011;18624;50.042;8.436;2022-12-05T14:43:18;23.30;;;14.02;;
32108;SDS011;18624;50.042;8.436;2022-12-05T14:50:46;26.45;;;13.93;;
32108;SDS011;18624;50.042;8.436;2022-12-05T14:58:30;22.83;;;13.38;;
32108;SDS011;18624;50.042;8.436;2022-12-05T15:01:04;30.75;;;15.95;;
32108;SDS011;18624;50.042;8.436;2022-12-05T15:03:35;21.38;;;14.18;;
32108;SDS011;18624;50.042;8.436;2022-12-05T15:06:05;26.50;;;15.20;;
32108;SDS011;18624;50.042;8.436;2022-12-05T15:08:43;21.40;;;13.95;;
32108;SDS011;18624;50.042;8.436;2022-12-05T15:11:16;25.30;;;15.02;;
32108;SDS011;18624;50.042;8.436;2022-12-05T15:13:57;18.58;;;10.93;;
32108;SDS011;18624;50.042;8.436;2022-12-05T15:16:30;26.20;;;13.75;;
32108;SDS011;18624;50.042;8.436;2022-12-05T15:19:02;27.33;;;16.02;;
32108;SDS011;18624;50.042;8.436;2022-12-05T15:21:38;29.83;;;13.98;;
32108;SDS011;18624;50.042;8.436;2022-12-05T15:24:12;28.92;;;16.95;;
32108;SDS011;18624;50.042;8.436;2022-12-05T15:26:41;28.63;;;15.33;;
32108;SDS011;18624;50.042;8.436;2022-12-05T15:31:54;26.17;;;15.18;;
32108;SDS011;18624;50.042;8.436;2022-12-05T15:34:36;23.38;;;12.88;;
32108;SDS011;18624;50.042;8.436;2022-12-05T15:37:22;26.83;;;13.60;;
32108;SDS011;18624;50.042;8.436;2022-12-05T15:42:30;20.35;;;12.85;;
32108;SDS011;18624;50.042;8.436;2022-12-05T15:47:37;21.95;;;13.88;;
32108;SDS011;18624;50.042;8.436;2022-12-05T15:50:05;21.33;;;14.20;;
32108;SDS011;18624;50.042;8.436;2022-12-05T15:52:39;24.92;;;14.02;;
32108;SDS011;18624;50.042;8.436;2022-12-05T15:55:14;24.75;;;13.25;;
32108;SDS011;18624;50.042;8.436;2022-12-05T15:57:49;22.52;;;12.82;;
32108;SDS011;18624;50.042;8.436;2022-12-05T16:00:21;22.17;;;14.35;;
32108;SDS011;18624;50.042;8.436;2022-12-05T16:02:56;22.83;;;13.60;;
32108;SDS011;18624;50.042;8.436;2022-12-05T16:05:30;24.98;;;15.25;;
32108;SDS011;18624;50.042;8.436;2022-12-05T16:08:04;23.52;;;13.27;;
32108;SDS011;18624;50.042;8.436;2022-12-05T16:10:33;23.45;;;14.10;;
32108;SDS011;18624;50.042;8.436;2022-12-05T16:13:04;20.65;;;12.82;;
32108;SDS011;18624;50.042;8.436;2022-12-05T16:15:36;23.98;;;15.85;;
32108;SDS011;18624;50.042;8.436;2022-12-05T16:18:02;22.67;;;16.15;;
32108;SDS011;18624;50.042;8.436;2022-12-05T16:20:35;26.88;;;16.85;;
32108;SDS011;18624;50.042;8.436;2022-12-05T16:25:50;21.73;;;14.52;;
32108;SDS011;18624;50.042;8.436;2022-12-05T16:28:18;22.15;;;14.15;;
32108;SDS011;18624;50.042;8.436;2022-12-05T16:30:55;25.38;;;14.50;;
32108;SDS011;18624;50.042;8.436;2022-12-05T16:33:25;20.95;;;14.60;;
32108;SDS011;18624;50.042;8.436;2022-12-05T16:35:53;27.95;;;16.80;;
32108;SDS011;18624;50.042;8.436;2022-12-05T16:38:20;27.60;;;16.08;;
32108;SDS011;18624;50.042;8.436;2022-12-05T16:41:07;20.52;;;12.32;;
32108;SDS011;18624;50.042;8.436;2022-12-05T16:43:43;24.63;;;14.68;;
32108;SDS011;18624;50.042;8.436;2022-12-05T16:48:39;25.27;;;15.00;;
32108;SDS011;18624;50.042;8.436;2022-12-05T16:53:40;23.90;;;15.38;;
32108;SDS011;18624;50.042;8.436;2022-12-05T16:56:15;27.83;;;16.73;;
32108;SDS011;18624;50.042;8.436;2022-12-05T16:58:45;27.35;;;14.65;;
32108;SDS011;18624;50.042;8.436;2022-12-05T17:01:18;19.95;;;13.73;;
32108;SDS011;18624;50.042;8.436;2022-12-05T17:03:47;23.33;;;14.70;;
32108;SDS011;18624;50.042;8.436;2022-12-05T17:06:13;24.83;;;14.88;;
32108;SDS011;18624;50.042;8.436;2022-12-05T17:08:41;22.85;;;14.30;;
32108;SDS011;18624;50.042;8.436;2022-12-05T17:11:14;19.45;;;13.13;;
32108;SDS011;18624;50.042;8.436;2022-12-05T17:13:44;24.88;;;14.45;;
32108;SDS011;18624;50.042;8.436;2022-12-05T17:16:13;24.02;;;13.55;;
32108;SDS011;18624;50.042;8.436;2022-12-05T17:18:43;24.15;;;14.88;;
32108;SDS011;18624;50.042;8.436;2022-12-05T17:21:12;22.58;;;14.45;;
32108;SDS011;18624;50.042;8.436;2022-12-05T17:23:42;23.70;;;15.10;;
32108;SDS011;18624;50.042;8.436;2022-12-05T17:26:14;26.20;;;18.23;;
32108;SDS011;18624;50.042;8.436;2022-12-05T17:28:42;24.05;;;15.68;;
32108;SDS011;18624;50.042;8.436;2022-12-05T17:31:10;26.27;;;16.80;;
32108;SDS011;18624;50.042;8.436;2022-12-05T17:33:39;28.23;;;17.60;;
32108;SDS011;18624;50.042;8.436;2022-12-05T17:36:06;26.65;;;15.55;;
32108;SDS011;18624;50.042;8.436;2022-12-05T17:38:32;24.48;;;14.68;;
32108;SDS011;18624;50.042;8.436;2022-12-05T17:40:59;27.05;;;16.88;;
32108;SDS011;18624;50.042;8.436;2022-12-05T17:43:32;26.33;;;16.33;;
32108;SDS011;18624;50.042;8.436;2022-12-05T17:45:59;23.77;;;15.38;;
32108;SDS011;18624;50.042;8.436;2022-12-05T17:48:26;22.60;;;14.45;;
32108;SDS011;18624;50.042;8.436;2022-12-05T17:50:53;29.92;;;17.20;;
32108;SDS011;18624;50.042;8.436;2022-12-05T17:53:22;22.35;;;15.60;;
32108;SDS011;18624;50.042;8.436;2022-12-05T17:55:49;22.60;;;15.25;;
32108;SDS011;18624;50.042;8.436;2022-12-05T17:58:16;25.00;;;17.20;;